sensor_id;sensor_type;location;lat;lon;timestamp;P1;durP1;ratioP1;P2;durP2;ratioP2
8885;SDS011;4479;51.162;13.906;2023-07-22T00:03:32;2.27;;;1.50;;
8885;SDS011;4479;51.162;13.906;2023-07-22T00:13:35;1.70;;;1.60;;
8885;SDS011;4479;51.162;13.906;2023-07-22T00:23:39;1.60;;;1.50;;
8885;SDS011;4479;51.162;13.906;2023-07-22T00:33:41;3.30;;;1.80;;
8885;SDS011;4479;51.162;13.906;2023-07-22T00:43:45;2.20;;;1.50;;
8885;SDS011;4479;51.162;13.906;2023-07-22T00:53:48;1.73;;;1.53;;
8885;SDS011;4479;51.162;13.906;2023-07-22T01:03:52;5.60;;;2.00;;
8885;SDS011;4479;51.162;13.906;2023-07-22T01:13:54;3.33;;;1.73;;
8885;SDS011;4479;51.162;13.906;2023-07-22T01:24:00;3.93;;;1.97;;
8885;SDS011;4479;51.162;13.906;2023-07-22T01:34:03;2.40;;;1.67;;
8885;SDS011;4479;51.162;13.906;2023-07-22T01:44:07;2.80;;;1.73;;
8885;SDS011;4479;51.162;13.906;2023-07-22T01:54:11;3.87;;;2.20;;
8885;SDS011;4479;51.162;13.906;2023-07-22T02:04:15;4.70;;;2.03;;
8885;SDS011;4479;51.162;13.906;2023-07-22T02:14:17;4.20;;;2.13;;
8885;SDS011;4479;51.162;13.906;2023-07-22T02:24:21;2.87;;;2.40;;
8885;SDS011;4479;51.162;13.906;2023-07-22T02:34:24;3.60;;;2.23;;
8885;SDS011;4479;51.162;13.906;2023-07-22T02:44:28;3.00;;;2.33;;
8885;SDS011;4479;51.162;13.906;2023-07-22T02:54:31;6.17;;;2.47;;
8885;SDS011;4479;51.162;13.906;2023-07-22T03:04:34;2.50;;;2.27;;
8885;SDS011;4479;51.162;13.906;2023-07-22T03:14:37;3.50;;;2.30;;
8885;SDS011;4479;51.162;13.906;2023-07-22T03:24:40;5.57;;;2.50;;
8885;SDS011;4479;51.162;13.906;2023-07-22T03:34:43;4.40;;;2.30;;
8885;SDS011;4479;51.162;13.906;2023-07-22T03:44:47;3.33;;;2.23;;
8885;SDS011;4479;51.162;13.906;2023-07-22T03:54:50;6.03;;;2.53;;
8885;SDS011;4479;51.162;13.906;2023-07-22T04:04:54;3.67;;;2.60;;
8885;SDS011;4479;51.162;13.906;2023-07-22T04:14:57;3.27;;;2.53;;
8885;SDS011;4479;51.162;13.906;2023-07-22T04:25:04;3.30;;;2.17;;
8885;SDS011;4479;51.162;13.906;2023-07-22T04:35:07;5.90;;;2.57;;
8885;SDS011;4479;51.162;13.906;2023-07-22T04:45:11;5.40;;;2.80;;
8885;SDS011;4479;51.162;13.906;2023-07-22T04:55:14;3.10;;;2.47;;
8885;SDS011;4479;51.162;13.906;2023-07-22T05:05:18;3.20;;;2.30;;
8885;SDS011;4479;51.162;13.906;2023-07-22T05:15:21;2.70;;;2.50;;
8885;SDS011;4479;51.162;13.906;2023-07-22T05:25:25;3.60;;;2.40;;
8885;SDS011;4479;51.162;13.906;2023-07-22T05:35:28;3.57;;;2.47;;
8885;SDS011;4479;51.162;13.906;2023-07-22T05:45:32;5.30;;;2.63;;
8885;SDS011;4479;51.162;13.906;2023-07-22T05:55:34;4.53;;;3.20;;
8885;SDS011;4479;51.162;13.906;2023-07-22T06:05:38;3.73;;;3.30;;
8885;SDS011;4479;51.162;13.906;2023-07-22T06:15:40;3.67;;;3.20;;
8885;SDS011;4479;51.162;13.906;2023-07-22T06:25:44;3.73;;;3.00;;
8885;SDS011;4479;51.162;13.906;2023-07-22T06:35:47;5.23;;;3.10;;
8885;SDS011;4479;51.162;13.906;2023-07-22T06:45:51;4.17;;;2.87;;
8885;SDS011;4479;51.162;13.906;2023-07-22T06:55:53;3.03;;;2.83;;
8885;SDS011;4479;51.162;13.906;2023-07-22T07:05:57;4.00;;;2.90;;
8885;SDS011;4479;51.162;13.906;2023-07-22T07:26:22;3.67;;;2.77;;
8885;SDS011;4479;51.162;13.906;2023-07-22T07:36:24;3.47;;;3.17;;
8885;SDS011;4479;51.162;13.906;2023-07-22T07:46:29;3.10;;;2.80;;
8885;SDS011;4479;51.162;13.906;2023-07-22T07:56:31;3.10;;;2.90;;
8885;SDS011;4479;51.162;13.906;2023-07-22T08:06:35;3.00;;;2.73;;
8885;SDS011;4479;51.162;13.906;2023-07-22T08:16:39;2.93;;;2.73;;
8885;SDS011;4479;51.162;13.906;2023-07-22T08:26:44;3.73;;;2.57;;
8885;SDS011;4479;51.162;13.906;2023-07-22T08:36:49;2.53;;;2.33;;
8885;SDS011;4479;51.162;13.906;2023-07-22T08:46:54;2.17;;;2.07;;
8885;SDS011;4479;51.162;13.906;2023-07-22T08:56:58;3.80;;;2.90;;
8885;SDS011;4479;51.162;13.906;2023-07-22T09:07:09;3.03;;;2.20;;
8885;SDS011;4479;51.162;13.906;2023-07-22T09:17:19;2.47;;;2.27;;
8885;SDS011;4479;51.162;13.906;2023-07-22T09:27:33;3.03;;;2.20;;
8885;SDS011;4479;51.162;13.906;2023-07-22T09:37:37;3.50;;;2.40;;
8885;SDS011;4479;51.162;13.906;2023-07-22T09:47:44;2.87;;;2.60;;
8885;SDS011;4479;51.162;13.906;2023-07-22T09:57:48;2.57;;;2.37;;
8885;SDS011;4479;51.162;13.906;2023-07-22T10:07:54;2.47;;;1.90;;
8885;SDS011;4479;51.162;13.906;2023-07-22T10:17:57;2.20;;;2.00;;
8885;SDS011;4479;51.162;13.906;2023-07-22T10:28:01;2.10;;;1.90;;
8885;SDS011;4479;51.162;13.906;2023-07-22T10:38:08;2.73;;;1.47;;
8885;SDS011;4479;51.162;13.906;2023-07-22T10:48:12;1.90;;;1.80;;
8885;SDS011;4479;51.162;13.906;2023-07-22T10:58:15;1.90;;;1.70;;
8885;SDS011;4479;51.162;13.906;2023-07-22T11:08:18;1.93;;;1.83;;
8885;SDS011;4479;51.162;13.906;2023-07-22T11:18:37;1.90;;;1.80;;
8885;SDS011;4479;51.162;13.906;2023-07-22T11:28:41;1.73;;;1.43;;
8885;SDS011;4479;51.162;13.906;2023-07-22T11:38:44;1.73;;;1.53;;
8885;SDS011;4479;51.162;13.906;2023-07-22T11:48:51;1.53;;;1.43;;
8885;SDS011;4479;51.162;13.906;2023-07-22T11:58:54;1.60;;;1.50;;
8885;SDS011;4479;51.162;13.906;2023-07-22T12:08:59;1.73;;;1.63;;
8885;SDS011;4479;51.162;13.906;2023-07-22T12:19:02;1.80;;;1.70;;
8885;SDS011;4479;51.162;13.906;2023-07-22T12:29:07;1.90;;;1.80;;
8885;SDS011;4479;51.162;13.906;2023-07-22T12:39:09;2.10;;;1.80;;
8885;SDS011;4479;51.162;13.906;2023-07-22T12:49:13;1.83;;;1.73;;
8885;SDS011;4479;51.162;13.906;2023-07-22T12:59:16;1.67;;;1.57;;
8885;SDS011;4479;51.162;13.906;2023-07-22T13:09:25;1.83;;;1.73;;
8885;SDS011;4479;51.162;13.906;2023-07-22T13:19:39;2.40;;;1.73;;
8885;SDS011;4479;51.162;13.906;2023-07-22T13:29:49;2.17;;;1.80;;
8885;SDS011;4479;51.162;13.906;2023-07-22T13:39:51;1.70;;;1.60;;
8885;SDS011;4479;51.162;13.906;2023-07-22T13:49:57;1.90;;;1.67;;
8885;SDS011;4479;51.162;13.906;2023-07-22T13:59:59;1.80;;;1.70;;
8885;SDS011;4479;51.162;13.906;2023-07-22T14:10:14;2.27;;;1.57;;
8885;SDS011;4479;51.162;13.906;2023-07-22T14:20:17;1.80;;;1.70;;
8885;SDS011;4479;51.162;13.906;2023-07-22T14:30:21;2.00;;;1.90;;
8885;SDS011;4479;51.162;13.906;2023-07-22T14:40:26;2.10;;;1.67;;
8885;SDS011;4479;51.162;13.906;2023-07-22T14:50:31;2.10;;;1.90;;
8885;SDS011;4479;51.162;13.906;2023-07-22T15:00:36;2.13;;;1.80;;
8885;SDS011;4479;51.162;13.906;2023-07-22T15:10:41;2.73;;;1.87;;
8885;SDS011;4479;51.162;13.906;2023-07-22T15:20:43;1.97;;;1.73;;
8885;SDS011;4479;51.162;13.906;2023-07-22T15:30:47;2.10;;;1.90;;
8885;SDS011;4479;51.162;13.906;2023-07-22T15:40:50;1.93;;;1.83;;
8885;SDS011;4479;51.162;13.906;2023-07-22T15:50:54;2.03;;;1.83;;
8885;SDS011;4479;51.162;13.906;2023-07-22T16:00:57;1.77;;;1.67;;
8885;SDS011;4479;51.162;13.906;2023-07-22T16:11:02;2.13;;;2.03;;
8885;SDS011;4479;51.162;13.906;2023-07-22T16:21:04;2.20;;;2.00;;
8885;SDS011;4479;51.162;13.906;2023-07-22T16:31:09;1.70;;;1.60;;
8885;SDS011;4479;51.162;13.906;2023-07-22T16:41:12;2.17;;;2.07;;
8885;SDS011;4479;51.162;13.906;2023-07-22T16:51:20;2.03;;;1.93;;
8885;SDS011;4479;51.162;13.906;2023-07-22T17:01:24;1.90;;;1.80;;
8885;SDS011;4479;51.162;13.906;2023-07-22T17:11:28;2.23;;;2.03;;
8885;SDS011;4479;51.162;13.906;2023-07-22T17:21:31;2.20;;;2.00;;
8885;SDS011;4479;51.162;13.906;2023-07-22T17:31:37;2.80;;;2.60;;
8885;SDS011;4479;51.162;13.906;2023-07-22T17:41:40;2.07;;;1.97;;
8885;SDS011;4479;51.162;13.906;2023-07-22T17:51:44;2.23;;;2.03;;
8885;SDS011;4479;51.162;13.906;2023-07-22T18:01:47;2.37;;;2.17;;
8885;SDS011;4479;51.162;13.906;2023-07-22T18:22:13;2.17;;;1.97;;
8885;SDS011;4479;51.162;13.906;2023-07-22T18:32:31;3.00;;;2.10;;
8885;SDS011;4479;51.162;13.906;2023-07-22T18:42:33;2.00;;;1.80;;
8885;SDS011;4479;51.162;13.906;2023-07-22T18:52:37;5.60;;;2.37;;
8885;SDS011;4479;51.162;13.906;2023-07-22T19:02:40;6.07;;;2.10;;
8885;SDS011;4479;51.162;13.906;2023-07-22T19:12:44;7.17;;;2.70;;
8885;SDS011;4479;51.162;13.906;2023-07-22T19:22:46;4.53;;;2.30;;
8885;SDS011;4479;51.162;13.906;2023-07-22T19:32:51;3.87;;;2.40;;
8885;SDS011;4479;51.162;13.906;2023-07-22T19:42:53;6.97;;;2.57;;
8885;SDS011;4479;51.162;13.906;2023-07-22T19:52:57;5.00;;;2.50;;
8885;SDS011;4479;51.162;13.906;2023-07-22T20:03:00;3.57;;;2.20;;
8885;SDS011;4479;51.162;13.906;2023-07-22T20:13:04;4.53;;;2.70;;
8885;SDS011;4479;51.162;13.906;2023-07-22T20:23:07;5.30;;;2.60;;
8885;SDS011;4479;51.162;13.906;2023-07-22T20:33:11;2.97;;;2.40;;
8885;SDS011;4479;51.162;13.906;2023-07-22T20:43:13;3.40;;;2.37;;
8885;SDS011;4479;51.162;13.906;2023-07-22T20:53:17;4.83;;;2.67;;
8885;SDS011;4479;51.162;13.906;2023-07-22T21:03:20;2.83;;;2.60;;
8885;SDS011;4479;51.162;13.906;2023-07-22T21:13:24;4.03;;;3.40;;
8885;SDS011;4479;51.162;13.906;2023-07-22T21:23:26;3.30;;;3.00;;
8885;SDS011;4479;51.162;13.906;2023-07-22T21:33:30;2.87;;;2.67;;
8885;SDS011;4479;51.162;13.906;2023-07-22T21:43:33;3.10;;;2.67;;
8885;SDS011;4479;51.162;13.906;2023-07-22T21:53:37;3.00;;;2.70;;
8885;SDS011;4479;51.162;13.906;2023-07-22T22:03:40;3.50;;;3.03;;
8885;SDS011;4479;51.162;13.906;2023-07-22T22:13:44;3.40;;;2.60;;
8885;SDS011;4479;51.162;13.906;2023-07-22T22:23:46;3.60;;;2.70;;
8885;SDS011;4479;51.162;13.906;2023-07-22T22:33:50;3.33;;;2.93;;
8885;SDS011;4479;51.162;13.906;2023-07-22T22:43:52;6.80;;;4.80;;
8885;SDS011;4479;51.162;13.906;2023-07-22T22:53:56;5.10;;;3.20;;
8885;SDS011;4479;51.162;13.906;2023-07-22T23:03:58;3.93;;;2.87;;
8885;SDS011;4479;51.162;13.906;2023-07-22T23:14:02;3.10;;;2.67;;
8885;SDS011;4479;51.162;13.906;2023-07-22T23:24:05;3.97;;;3.03;;
8885;SDS011;4479;51.162;13.906;2023-07-22T23:34:09;3.40;;;3.10;;
8885;SDS011;4479;51.162;13.906;2023-07-22T23:44:11;3.10;;;2.77;;
8885;SDS011;4479;51.162;13.906;2023-07-22T23:54:15;3.10;;;2.80;;
